Time;durP1;ratioP1;P1;durP2;ratioP2;P2;SDS_P1;SDS_P2;PMS_P1;PMS_P2;Temp;Humidity;BMP_temperature;BMP_pressure;BME280_temperature;BME280_humidity;BME280_pressure;Samples;Min_cycle;Max_cycle;Signal;HPM_P1;HPM_P2
2023/09/12 00:01:20;;;;;;;;;4.00;4.00;;;;;24.27;53.23;100748.44;5015768;28;54227;-74
2023/09/12 00:03:45;;;;;;;;;5.33;5.33;;;;;24.53;53.42;100798.00;5016241;28;49368;-72
2023/09/12 00:06:11;;;;;;;;;6.67;6.67;;;;;24.56;53.58;100802.97;5016452;28;45399;-72
2023/09/12 00:08:36;;;;;;;;;6.33;5.00;;;;;24.44;53.90;100800.25;4998105;28;60716;-72
2023/09/12 00:11:09;;;;;;;;;7.00;5.67;;;;;24.08;53.84;100748.75;5017187;28;45470;-72
2023/09/12 00:13:35;;;;;;;;;5.67;5.00;;;;;24.46;53.77;100810.88;5019308;28;47258;-74
2023/09/12 00:16:00;;;;;;;;;6.33;5.00;;;;;24.16;53.81;100748.41;5039660;28;45336;-72
2023/09/12 00:18:26;;;;;;;;;4.75;4.75;;;;;24.49;54.10;100792.22;5019657;28;45515;-71
2023/09/12 00:20:52;;;;;;;;;9.00;5.00;;;;;24.42;54.00;100777.91;5019725;28;45673;-73
2023/09/12 00:23:18;;;;;;;;;5.00;5.00;;;;;24.50;53.92;100802.03;5019786;28;45796;-74
2023/09/12 00:25:43;;;;;;;;;11.67;6.33;;;;;24.44;54.28;100792.09;5019944;28;45490;-73
2023/09/12 00:28:09;;;;;;;;;7.00;6.00;;;;;24.47;54.12;100802.50;5020156;28;45439;-73
2023/09/12 00:30:34;;;;;;;;;6.33;5.67;;;;;24.45;54.51;100799.19;5019872;28;45564;-73
2023/09/12 00:32:59;;;;;;;;;4.67;3.33;;;;;24.38;54.69;100787.59;5019715;28;46752;-72
2023/09/12 00:35:24;;;;;;;;;4.75;4.00;;;;;24.28;54.57;100781.88;5018813;28;45318;-73
2023/09/12 00:37:50;;;;;;;;;5.67;5.67;;;;;24.38;55.12;100795.75;5039498;28;45482;-74
2023/09/12 00:40:15;;;;;;;;;4.33;3.67;;;;;24.40;54.95;100807.19;5039843;28;45369;-72
2023/09/12 00:42:40;;;;;;;;;5.00;5.00;;;;;24.41;54.68;100813.47;5039521;28;46717;-73
2023/09/12 00:45:06;;;;;;;;;4.33;4.33;;;;;24.10;54.84;100746.63;5034084;28;45590;-72
2023/09/12 00:47:32;;;;;;;;;6.33;5.33;;;;;24.06;54.44;100746.28;5039567;28;45247;-73
2023/09/12 00:49:59;;;;;;;;;4.00;4.00;;;;;24.35;54.96;100795.38;5039350;28;45391;-72
2023/09/12 00:52:27;;;;;;;;;5.33;5.33;;;;;24.40;54.94;100793.59;5039067;28;46854;-72
2023/09/12 00:54:53;;;;;;;;;5.00;5.00;;;;;24.32;55.19;100774.13;5038246;28;45419;-73
2023/09/12 00:57:20;;;;;;;;;5.75;5.75;;;;;24.29;54.82;100780.03;5033788;28;45406;-73
2023/09/12 00:59:47;;;;;;;;;7.00;7.00;;;;;24.22;55.43;100794.47;5019477;28;45270;-73
2023/09/12 01:02:12;;;;;;;;;6.00;4.00;;;;;24.12;55.57;100796.94;5019074;28;46933;-71
2023/09/12 01:04:38;;;;;;;;;6.00;4.67;;;;;23.96;55.33;100774.00;5018877;28;45345;-72
2023/09/12 01:07:04;;;;;;;;;4.00;4.00;;;;;24.04;55.66;100791.88;5019658;28;45354;-72
2023/09/12 01:09:31;;;;;;;;;4.67;4.67;;;;;23.98;55.94;100788.16;5019197;28;45172;-75
2023/09/12 01:11:56;;;;;;;;;6.00;5.00;;;;;23.95;56.70;100793.22;5018764;28;49057;-71
2023/09/12 01:14:21;;;;;;;;;6.00;6.00;;;;;23.64;57.10;100751.69;5018725;28;45318;-72
2023/09/12 01:16:47;;;;;;;;;5.33;5.33;;;;;23.91;56.75;100783.91;5018780;28;56047;-73
2023/09/12 01:19:14;;;;;;;;;8.33;6.00;;;;;23.95;56.22;100776.94;5018874;28;45519;-81
2023/09/12 01:22:07;;;;;;;;;7.67;6.33;;;;;23.96;56.32;100784.84;5018517;28;46585;-71
2023/09/12 01:25:07;;;;;;;;;8.67;7.00;;;;;23.93;56.45;100774.44;5018048;28;45538;-72
2023/09/12 01:27:37;;;;;;;;;8.33;7.33;;;;;23.90;56.93;100777.63;5018982;28;45542;-72
2023/09/12 01:30:05;;;;;;;;;7.00;6.00;;;;;23.79;56.94;100751.25;5019087;28;45234;-72
2023/09/12 01:32:35;;;;;;;;;7.00;7.00;;;;;23.69;57.61;100761.84;5018218;28;46112;-73
2023/09/12 01:35:03;;;;;;;;;9.00;7.67;;;;;23.66;57.23;100774.00;5020716;28;45395;-74
2023/09/12 01:37:29;;;;;;;;;9.67;8.00;;;;;23.65;57.55;100788.63;5018751;28;45362;-72
2023/09/12 01:39:55;;;;;;;;;7.00;7.00;;;;;23.56;58.07;100789.13;5018907;28;45308;-72
2023/09/12 01:42:22;;;;;;;;;10.00;6.00;;;;;23.48;58.82;100800.31;5018552;28;45573;-73
2023/09/12 01:44:51;;;;;;;;;6.67;6.67;;;;;23.51;58.37;100797.13;5018461;28;45307;-72
2023/09/12 01:47:17;;;;;;;;;10.33;9.00;;;;;23.47;58.51;100790.50;5017784;28;45412;-72
2023/09/12 01:49:46;;;;;;;;;7.00;5.67;;;;;23.57;58.20;100804.38;5018437;28;45415;-71
2023/09/12 01:52:13;;;;;;;;;10.00;9.00;;;;;23.56;58.10;100783.69;5018390;28;46518;-73
2023/09/12 01:54:40;;;;;;;;;6.67;6.67;;;;;23.64;58.28;100797.84;5018378;28;45524;-72
2023/09/12 01:57:08;;;;;;;;;8.00;8.00;;;;;23.62;57.95;100790.97;5018573;28;45246;-73
2023/09/12 01:59:33;;;;;;;;;10.00;9.00;;;;;23.58;58.24;100789.75;5018781;28;45408;-72
2023/09/12 02:01:59;;;;;;;;;10.33;7.33;;;;;23.27;58.47;100742.75;5018085;28;47467;-72
2023/09/12 02:04:24;;;;;;;;;7.00;7.00;;;;;23.57;58.42;100790.81;5024830;28;45416;-73
2023/09/12 02:06:49;;;;;;;;;8.67;8.67;;;;;23.51;58.72;100797.13;5038273;28;45525;-72
2023/09/12 02:09:15;;;;;;;;;10.67;9.00;;;;;23.32;59.09;100794.44;5038086;28;50544;-72
2023/09/12 02:11:40;;;;;;;;;9.67;8.67;;;;;23.28;59.17;100800.53;5035063;28;46431;-73
2023/09/12 02:14:05;;;;;;;;;9.00;9.00;;;;;23.19;59.43;100805.41;5018175;28;45436;-73
2023/09/12 02:16:31;;;;;;;;;10.00;8.00;;;;;23.10;59.83;100805.97;5018152;28;45930;-72
2023/09/12 02:18:56;;;;;;;;;10.33;9.33;;;;;23.02;60.51;100801.63;5028983;28;45491;-73
2023/09/12 02:21:22;;;;;;;;;7.33;6.00;;;;;22.72;60.37;100750.00;5037657;28;52397;-72
2023/09/12 02:23:47;;;;;;;;;12.33;10.33;;;;;22.93;61.02;100792.16;5037962;28;45522;-72
2023/09/12 02:26:12;;;;;;;;;8.00;7.67;;;;;22.83;61.42;100789.97;5037278;28;45244;-73
2023/09/12 02:28:38;;;;;;;;;10.67;9.67;;;;;22.75;61.94;100773.94;5038306;28;45567;-74
2023/09/12 02:31:03;;;;;;;;;16.33;13.33;;;;;22.72;61.97;100782.53;5037611;28;49665;-73
2023/09/12 02:33:28;;;;;;;;;11.00;11.00;;;;;22.76;62.09;100803.53;5037612;28;45245;-73
2023/09/12 02:35:54;;;;;;;;;11.00;9.00;;;;;22.66;62.37;100789.66;5018709;28;45573;-71
2023/09/12 02:38:19;;;;;;;;;13.67;9.67;;;;;22.81;61.90;100796.59;5037833;28;47192;-72
2023/09/12 02:40:44;;;;;;;;;8.33;8.33;;;;;22.71;62.54;100791.72;5022481;28;46517;-72
2023/09/12 02:43:09;;;;;;;;;7.00;7.00;;;;;22.75;61.93;100788.31;5023720;28;45335;-72
2023/09/12 02:45:35;;;;;;;;;12.67;11.33;;;;;22.60;61.80;100760.72;5026992;28;45420;-71
2023/09/12 02:48:00;;;;;;;;;9.67;8.67;;;;;22.82;61.68;100788.28;5017234;28;51622;-71
2023/09/12 02:50:26;;;;;;;;;11.33;10.00;;;;;22.76;62.63;100789.97;5017157;28;46844;-72
2023/09/12 02:52:51;;;;;;;;;8.33;8.00;;;;;22.51;62.84;100774.78;5017666;28;45245;-72
2023/09/12 02:55:17;;;;;;;;;11.33;9.33;;;;;22.28;63.02;100737.47;5017534;28;45167;-73
2023/09/12 02:57:42;;;;;;;;;9.67;9.67;;;;;22.60;62.82;100789.72;5017273;28;45396;-72
2023/09/12 03:00:08;;;;;;;;;10.33;10.33;;;;;22.62;63.10;100790.31;5017557;28;46626;-73
2023/09/12 03:02:34;;;;;;;;;11.67;10.00;;;;;22.51;62.86;100780.22;5017422;28;45403;-74
2023/09/12 03:05:01;;;;;;;;;13.00;12.67;;;;;22.52;63.20;100781.88;5017251;28;45589;-72
2023/09/12 03:07:27;;;;;;;;;11.67;11.33;;;;;22.42;63.16;100783.19;5017031;28;45515;-72
2023/09/12 03:09:52;;;;;;;;;10.00;10.00;;;;;22.37;63.47;100783.00;5017372;28;46378;-72
2023/09/12 03:12:17;;;;;;;;;11.33;10.00;;;;;22.25;63.81;100770.44;5016834;28;58376;-71
2023/09/12 03:14:43;;;;;;;;;10.67;10.67;;;;;22.15;63.49;100760.06;5016832;28;52077;-72
2023/09/12 03:17:08;;;;;;;;;13.33;13.33;;;;;22.22;63.91;100781.66;5017127;28;45383;-72
2023/09/12 03:19:33;;;;;;;;;12.33;8.33;;;;;22.01;64.15;100756.56;5033817;28;65637;-73
2023/09/12 03:21:59;;;;;;;;;10.67;10.67;;;;;22.15;64.28;100787.97;5036928;28;45273;-72
2023/09/12 03:24:25;;;;;;;;;11.00;10.33;;;;;22.07;64.12;100777.41;5037160;28;45473;-72
2023/09/12 03:26:51;;;;;;;;;14.00;13.33;;;;;22.12;64.53;100798.41;5037412;28;45436;-72
2023/09/12 03:29:16;;;;;;;;;11.00;10.33;;;;;22.04;64.57;100780.56;5036903;28;47326;-72
2023/09/12 03:31:41;;;;;;;;;11.67;11.00;;;;;;;;5036878;28;45528;-72
2023/09/12 03:34:07;;;;;;;;;12.00;10.00;;;;;21.98;64.01;100767.03;5013410;28;45454;-73
2023/09/12 03:36:32;;;;;;;;;14.33;13.33;;;;;22.18;64.36;100808.38;5017689;28;45538;-73
2023/09/12 03:38:57;;;;;;;;;14.00;14.00;;;;;22.01;64.39;100770.13;5016706;28;46469;-72
2023/09/12 03:41:25;;;;;;;;;15.33;9.00;;;;;22.16;64.26;100780.69;5016797;28;45348;-71
2023/09/12 03:43:53;;;;;;;;;9.67;9.67;;;;;22.30;64.33;100805.78;5017024;28;45583;-72
2023/09/12 03:46:18;;;;;;;;;16.33;14.67;;;;;22.31;64.28;100812.88;5016617;28;45249;-73
2023/09/12 03:48:44;;;;;;;;;16.67;13.67;;;;;22.33;63.84;100817.00;5016046;28;59750;-72
2023/09/12 03:51:09;;;;;;;;;13.67;10.67;;;;;22.35;63.79;100823.03;5016584;28;45478;-72
2023/09/12 03:53:34;;;;;;;;;9.33;9.33;;;;;22.24;64.03;100806.69;5016659;28;49281;-72
2023/09/12 03:56:00;;;;;;;;;10.67;9.67;;;;;22.26;63.80;100813.53;5016754;28;45211;-72
2023/09/12 03:58:25;;;;;;;;;8.33;8.33;;;;;22.03;63.62;100781.59;5019285;28;47311;-71
2023/09/12 04:00:51;;;;;;;;;13.00;13.00;;;;;22.33;63.81;100835.16;5016449;28;45447;-72
2023/09/12 04:03:16;;;;;;;;;12.33;12.00;;;;;22.33;63.62;100837.84;5016023;28;45606;-72
2023/09/12 04:05:41;;;;;;;;;11.67;11.67;;;;;22.33;64.02;100824.31;5016468;28;45293;-72
2023/09/12 04:08:07;;;;;;;;;14.33;13.33;;;;;22.22;63.57;100801.47;5023681;28;47445;-74
2023/09/12 04:10:32;;;;;;;;;12.33;12.33;;;;;22.35;63.63;100814.91;5036600;28;49237;-71
2023/09/12 04:12:57;;;;;;;;;14.67;13.33;;;;;22.33;63.76;100805.34;5031260;28;45503;-73
2023/09/12 04:15:23;;;;;;;;;15.00;12.67;;;;;22.32;63.99;100798.28;5036034;28;45446;-71
2023/09/12 04:17:48;;;;;;;;;16.33;14.67;;;;;22.30;63.62;100803.09;5036256;28;47536;-73
2023/09/12 04:20:13;;;;;;;;;19.33;16.33;;;;;22.13;63.94;100789.25;5035803;28;50556;-72
2023/09/12 04:22:40;;;;;;;;;13.00;13.00;;;;;22.19;64.45;100798.38;5036353;28;45396;-72
2023/09/12 04:25:06;;;;;;;;;13.00;12.00;;;;;22.17;64.26;100812.94;5036468;28;45483;-73
2023/09/12 04:27:31;;;;;;;;;15.00;15.00;;;;;22.17;64.47;100818.38;5036273;28;45686;-71
2023/09/12 04:29:56;;;;;;;;;10.33;9.33;;;;;22.25;64.60;100820.00;5036144;28;45320;-72
2023/09/12 04:32:23;;;;;;;;;16.33;15.33;;;;;21.88;64.48;100772.94;5017163;28;52146;-71
2023/09/12 04:34:49;;;;;;;;;15.33;14.33;;;;;22.10;64.67;100817.59;5016122;28;45627;-73
2023/09/12 04:37:14;;;;;;;;;20.00;17.00;;;;;22.19;64.24;100825.44;5015865;28;46771;-71
2023/09/12 04:39:39;;;;;;;;;17.67;15.33;;;;;22.23;64.22;100826.69;5015361;28;60483;-72
2023/09/12 04:42:05;;;;;;;;;14.00;12.67;;;;;22.25;64.47;100830.00;5016381;28;45459;-73
2023/09/12 04:44:41;;;;;;;;;18.33;16.00;;;;;22.19;64.46;100834.41;5016436;28;45499;-73
2023/09/12 04:47:06;;;;;;;;;17.67;15.33;;;;;22.16;64.07;100826.72;5015767;28;47458;-74
2023/09/12 04:49:31;;;;;;;;;16.33;16.33;;;;;22.20;64.38;100833.34;5015576;28;45290;-73
2023/09/12 04:51:57;;;;;;;;;14.67;14.00;;;;;22.19;64.16;100841.69;5016066;28;45500;-72
2023/09/12 04:54:22;;;;;;;;;15.33;14.33;;;;;22.17;64.19;100839.19;5016196;28;45496;-72
2023/09/12 04:56:48;;;;;;;;;16.67;15.67;;;;;22.10;64.43;100820.28;5015824;28;47396;-72
2023/09/12 04:59:13;;;;;;;;;13.33;12.67;;;;;22.12;64.77;100836.31;5017841;28;45348;-71
2023/09/12 05:01:38;;;;;;;;;18.33;16.33;;;;;22.04;65.00;100829.31;5019359;28;45460;-72
2023/09/12 05:04:04;;;;;;;;;17.33;14.67;;;;;21.64;65.09;100757.47;5019329;28;45415;-71
2023/09/12 05:06:29;;;;;;;;;15.33;14.67;;;;;21.90;64.89;100781.66;5018690;28;45476;-72
2023/09/12 05:08:55;;;;;;;;;16.33;15.33;;;;;22.11;64.23;100811.13;5019033;28;45405;-72
2023/09/12 05:11:23;;;;;;;;;20.00;18.00;;;;;22.15;64.80;100825.06;5019271;28;45304;-73
2023/09/12 05:13:49;;;;;;;;;15.00;15.00;;;;;22.12;64.92;100822.78;5032626;28;45606;-74
2023/09/12 05:16:14;;;;;;;;;17.00;16.67;;;;;22.19;64.57;100830.84;5038808;28;46439;-74
2023/09/12 05:18:39;;;;;;;;;17.67;15.33;;;;;22.21;64.17;100834.19;5038557;28;45415;-71
2023/09/12 05:21:05;;;;;;;;;20.00;18.67;;;;;22.28;64.39;100837.69;5035012;28;58535;-73
2023/09/12 05:23:31;;;;;;;;;20.67;19.67;;;;;22.30;64.25;100854.56;5037887;28;45490;-72
2023/09/12 05:25:56;;;;;;;;;18.67;18.67;;;;;22.24;64.32;100847.31;5038403;28;46699;-73
2023/09/12 05:28:21;;;;;;;;;25.00;21.67;;;;;22.06;64.27;100816.38;5037655;28;45470;-72
2023/09/12 05:30:47;;;;;;;;;15.33;14.33;;;;;22.27;64.30;100841.44;5035550;28;45417;-73
2023/09/12 05:33:12;;;;;;;;;22.33;20.00;;;;;22.37;64.16;100849.91;5038457;28;45219;-71
2023/09/12 05:35:37;;;;;;;;;21.00;19.00;;;;;22.34;63.97;100851.19;5037694;28;56067;-74
2023/09/12 05:38:03;;;;;;;;;18.67;17.67;;;;;22.31;64.28;100840.78;5025014;28;45507;-72
2023/09/12 05:40:28;;;;;;;;;24.67;19.33;;;;;22.05;63.65;100794.94;5016970;28;45353;-72
2023/09/12 05:42:54;;;;;;;;;18.33;17.33;;;;;22.30;63.70;100833.72;5030231;28;45315;-73
2023/09/12 05:45:19;;;;;;;;;22.33;18.33;;;;;22.32;63.78;100828.06;5026190;28;45485;-72
2023/09/12 05:47:44;;;;;;;;;27.67;24.00;;;;;22.43;63.97;100852.59;5017825;28;45424;-73
2023/09/12 05:50:11;;;;;;;;;21.67;19.67;;;;;22.10;63.97;100779.69;5018219;28;45592;-73
2023/09/12 05:52:37;;;;;;;;;18.33;18.33;;;;;22.42;63.95;100837.34;5018487;28;45424;-73
2023/09/12 05:55:04;;;;;;;;;20.67;17.00;;;;;22.37;63.92;100823.66;5017803;28;46204;-72
2023/09/12 05:57:32;;;;;;;;;16.33;15.67;;;;;22.47;63.61;100839.44;5017710;28;45528;-73
2023/09/12 05:59:59;;;;;;;;;25.00;19.00;;;;;22.56;63.15;100848.94;5017942;28;45363;-74
2023/09/12 06:02:25;;;;;;;;;16.00;15.67;;;;;22.60;63.52;100844.72;5018332;28;45454;-72
2023/09/12 06:04:50;;;;;;;;;23.33;18.33;;;;;22.66;62.92;100846.56;5017440;28;45910;-73
2023/09/12 06:07:15;;;;;;;;;21.33;18.67;;;;;22.67;62.94;100840.09;5017902;28;45408;-74
2023/09/12 06:09:41;;;;;;;;;26.67;25.00;;;;;22.83;62.64;100865.03;5017586;28;45769;-73
2023/09/12 06:12:06;;;;;;;;;23.33;18.33;;;;;22.88;62.58;100862.50;5023404;28;45347;-74
2023/09/12 06:14:31;;;;;;;;;20.33;17.67;;;;;22.82;62.02;100857.94;5017796;28;46257;-72
2023/09/12 06:16:57;;;;;;;;;22.33;19.33;;;;;22.96;61.61;100870.31;5018175;28;45451;-71
2023/09/12 06:19:22;;;;;;;;;22.00;19.00;;;;;23.04;61.98;100868.19;5018173;28;45520;-74
2023/09/12 06:21:47;;;;;;;;;24.67;22.00;;;;;23.13;61.44;100865.16;5017967;28;45559;-72
2023/09/12 06:24:13;;;;;;;;;22.33;21.00;;;;;23.23;61.16;100868.22;5020899;28;45426;-77
2023/09/12 06:26:39;;;;;;;;;28.00;25.67;;;;;23.20;60.54;100855.06;5017066;28;45399;-72
2023/09/12 06:29:04;;;;;;;;;24.67;20.33;;;;;23.11;60.70;100823.88;4999920;28;45292;-72
2023/09/12 06:31:30;;;;;;;;;21.00;19.67;;;;;23.34;60.37;100873.72;5018151;28;45214;-73
2023/09/12 06:33:56;;;;;;;;;24.00;21.33;;;;;23.00;60.57;100822.72;5017253;28;45593;-73
2023/09/12 06:36:21;;;;;;;;;21.67;19.33;;;;;23.31;60.46;100876.88;5017118;28;45289;-72
2023/09/12 06:38:47;;;;;;;;;33.00;24.33;;;;;23.24;60.57;100876.13;5017449;28;45415;-72
2023/09/12 06:41:13;;;;;;;;;21.67;20.67;;;;;23.17;60.18;100860.94;5017838;28;45664;-75
2023/09/12 06:43:38;;;;;;;;;26.67;26.00;;;;;23.24;60.46;100873.41;5017390;28;46488;-74
2023/09/12 06:46:03;;;;;;;;;25.33;24.33;;;;;23.22;60.83;100859.22;5017233;28;45479;-73
2023/09/12 06:48:29;;;;;;;;;24.67;24.67;;;;;23.31;60.36;100847.03;5022626;28;45435;-71
2023/09/12 06:50:54;;;;;;;;;24.00;22.67;;;;;23.49;59.95;100850.81;5037102;28;45514;-72
2023/09/12 06:53:20;;;;;;;;;30.33;24.00;;;;;23.62;59.59;100850.66;5037105;28;46177;-73
2023/09/12 06:55:45;;;;;;;;;27.00;23.00;;;;;23.76;58.89;100852.16;5037015;28;45504;-71
2023/09/12 06:58:11;;;;;;;;;25.67;23.33;;;;;23.92;58.82;100835.25;5037073;28;49151;-72
2023/09/12 07:00:36;;;;;;;;;22.67;22.00;;;;;24.38;57.81;100851.97;5037426;28;45283;-72
2023/09/12 07:03:02;;;;;;;;;26.67;21.67;;;;;24.83;56.93;100849.59;5036849;28;45980;-72
2023/09/12 07:05:27;;;;;;;;;23.67;23.33;;;;;25.31;55.70;100862.16;5036855;28;45323;-72
2023/09/12 07:07:52;;;;;;;;;21.67;19.67;;;;;25.50;54.33;100858.22;5037496;28;45425;-73
2023/09/12 07:10:18;;;;;;;;;29.00;26.00;;;;;25.50;54.50;100862.84;5037214;28;45582;-72
2023/09/12 07:12:43;;;;;;;;;22.33;18.67;;;;;25.43;53.99;100865.69;5036992;28;45700;-71
2023/09/12 07:15:09;;;;;;;;;26.67;24.33;;;;;25.28;53.95;100878.97;5037002;28;45575;-72
2023/09/12 07:17:34;;;;;;;;;27.67;27.67;;;;;24.87;54.54;100823.56;5023778;28;45591;-71
2023/09/12 07:20:00;;;;;;;;;21.33;20.33;;;;;25.11;54.74;100876.13;5020441;28;45581;-72
2023/09/12 07:22:26;;;;;;;;;24.33;20.33;;;;;25.01;54.32;100873.13;5022768;28;46290;-73
2023/09/12 07:24:51;;;;;;;;;18.67;18.00;;;;;24.93;54.64;100877.03;5037404;28;45460;-74
2023/09/12 07:27:16;;;;;;;;;23.33;21.33;;;;;24.67;55.06;100848.38;5054482;28;45338;-73
2023/09/12 07:29:42;;;;;;;;;21.67;20.33;;;;;24.70;55.36;100885.97;5026367;28;45630;-71
2023/09/12 07:32:07;;;;;;;;;20.67;19.00;;;;;24.64;55.77;100888.81;5029707;28;46056;-72
2023/09/12 07:34:33;;;;;;;;;17.67;17.67;;;;;24.75;55.49;100888.00;5056061;28;46479;-72
2023/09/12 07:36:58;;;;;;;;;18.33;18.00;;;;;24.91;55.16;100897.34;5056529;28;45531;-72
2023/09/12 07:39:23;;;;;;;;;21.33;18.33;;;;;25.02;55.04;100897.38;5023184;28;45542;-73
2023/09/12 07:41:49;;;;;;;;;16.33;15.33;;;;;25.10;54.76;100902.50;5024682;28;45539;-73
2023/09/12 07:44:16;;;;;;;;;16.00;16.00;;;;;25.10;54.28;100894.34;5025070;28;45351;-74
2023/09/12 07:46:42;;;;;;;;;21.00;21.00;;;;;24.90;54.61;100885.66;5025591;28;45339;-73
2023/09/12 07:49:09;;;;;;;;;22.00;20.00;;;;;24.66;55.01;100864.94;5021743;28;45401;-73
2023/09/12 07:51:35;;;;;;;;;22.33;19.33;;;;;24.55;55.45;100878.25;5034578;28;47603;-73
2023/09/12 07:54:01;;;;;;;;;17.00;16.33;;;;;24.46;55.78;100874.22;5049520;28;45555;-73
2023/09/12 07:56:26;;;;;;;;;22.33;20.00;;;;;24.49;56.43;100879.19;5029384;28;45519;-75
2023/09/12 07:58:51;;;;;;;;;25.67;21.00;;;;;24.43;56.12;100882.03;5036010;28;45293;-73
2023/09/12 08:01:17;;;;;;;;;22.33;21.33;;;;;24.39;56.32;100892.50;5042198;28;46811;-72
2023/09/12 08:03:43;;;;;;;;;20.00;19.33;;;;;24.30;56.49;100893.06;5056079;28;45527;-72
2023/09/12 08:06:08;;;;;;;;;20.00;19.33;;;;;24.36;56.45;100878.56;5044236;28;45457;-73
2023/09/12 08:08:35;;;;;;;;;22.33;16.33;;;;;24.32;56.24;100886.34;5020450;28;45470;-74
2023/09/12 08:11:00;;;;;;;;;24.00;21.67;;;;;24.25;56.50;100874.72;5019425;28;46830;-72
2023/09/12 08:13:27;;;;;;;;;15.00;15.00;;;;;24.16;56.08;100870.66;5021179;28;45547;-73
2023/09/12 08:15:53;;;;;;;;;16.67;16.67;;;;;23.94;56.62;100859.47;5020697;28;45471;-72
2023/09/12 08:18:18;;;;;;;;;15.00;14.67;;;;;24.25;56.16;100900.00;5022695;28;45590;-77
2023/09/12 08:20:44;;;;;;;;;18.00;15.33;;;;;24.26;55.97;100907.09;5023268;28;45757;-73
2023/09/12 08:23:09;;;;;;;;;17.33;17.33;;;;;24.27;56.47;100907.91;5031378;28;45396;-73
2023/09/12 08:25:35;;;;;;;;;13.67;13.67;;;;;24.20;55.84;100910.72;5035617;28;45517;-73
2023/09/12 08:28:00;;;;;;;;;14.67;13.00;;;;;24.19;56.13;100903.63;5054572;28;45374;-74
2023/09/12 08:30:25;;;;;;;;;15.67;15.33;;;;;24.31;56.17;100911.88;5034957;28;46274;-73
2023/09/12 08:32:51;;;;;;;;;13.67;13.00;;;;;24.21;56.25;100890.63;5027357;28;45589;-72
2023/09/12 08:35:16;;;;;;;;;15.00;14.67;;;;;24.36;56.15;100909.28;5032224;28;45508;-73
2023/09/12 08:37:42;;;;;;;;;15.67;14.67;;;;;24.25;55.68;100870.13;5037874;28;45494;-73
2023/09/12 08:40:10;;;;;;;;;14.67;14.67;;;;;24.51;55.69;100904.25;5033626;28;45603;-72
2023/09/12 08:42:40;;;;;;;;;12.33;12.33;;;;;24.45;55.20;100883.44;5053953;28;45556;-72
2023/09/12 08:45:11;;;;;;;;;14.00;14.00;;;;;24.23;55.32;100855.09;5045911;28;45436;-73
2023/09/12 08:47:40;;;;;;;;;14.00;14.00;;;;;24.20;55.69;100864.53;5040285;28;45368;-72
2023/09/12 08:50:07;;;;;;;;;14.33;14.33;;;;;24.53;55.62;100896.69;5018285;28;45333;-72
2023/09/12 08:52:33;;;;;;;;;14.33;11.33;;;;;24.47;55.18;100894.91;5047413;28;45432;-73
2023/09/12 08:54:58;;;;;;;;;17.00;15.00;;;;;24.31;55.14;100865.66;5058954;28;45520;-72
2023/09/12 08:57:24;;;;;;;;;16.00;14.67;;;;;24.20;55.42;100861.81;5045030;28;45480;-72
2023/09/12 08:59:51;;;;;;;;;12.00;12.00;;;;;24.39;55.09;100897.94;5027635;28;46209;-72
2023/09/12 09:02:17;;;;;;;;;13.33;13.33;;;;;24.30;55.36;100899.34;5039475;28;46678;-73
2023/09/12 09:04:45;;;;;;;;;18.00;18.00;;;;;24.02;55.49;100866.44;5018091;28;45557;-74
2023/09/12 09:07:13;;;;;;;;;19.67;14.33;;;;;24.18;56.04;100910.09;5030299;28;45474;-75
2023/09/12 09:09:38;;;;;;;;;17.67;16.33;;;;;24.06;55.93;100911.13;5038525;28;45867;-74
2023/09/12 09:12:08;;;;;;;;;17.00;15.33;;;;;23.95;56.40;100899.13;5046139;28;45456;-73
2023/09/12 09:14:33;;;;;;;;;16.00;13.33;;;;;24.02;56.66;100913.44;5029433;28;45448;-72
2023/09/12 09:16:58;;;;;;;;;15.00;14.33;;;;;23.96;56.77;100915.19;5033286;28;45451;-74
2023/09/12 09:19:41;;;;;;;;;17.00;16.00;;;;;23.89;56.98;100914.47;5030256;28;45838;-73
2023/09/12 09:22:07;;;;;;;;;15.67;14.33;;;;;23.79;57.58;100919.59;5029902;28;46149;-75
2023/09/12 09:24:32;;;;;;;;;19.67;15.00;;;;;23.42;57.85;100866.31;5026939;28;45566;-74
2023/09/12 09:27:00;;;;;;;;;17.33;15.67;;;;;23.59;57.78;100886.41;5029757;28;45414;-74
2023/09/12 09:29:26;;;;;;;;;15.67;11.00;;;;;23.79;57.94;100911.44;5034842;28;45597;-74
2023/09/12 09:31:52;;;;;;;;;17.67;17.67;;;;;23.81;57.38;100905.78;5021396;28;46084;-74
2023/09/12 09:34:19;;;;;;;;;14.33;13.00;;;;;23.65;57.50;100897.22;5021180;28;45833;-75
2023/09/12 09:36:49;;;;;;;;;17.00;15.33;;;;;23.48;57.52;100868.16;5035323;28;45542;-74
2023/09/12 09:39:16;;;;;;;;;14.00;11.67;;;;;23.73;57.86;100915.06;5029484;28;45901;-75
2023/09/12 09:41:42;;;;;;;;;14.67;13.67;;;;;23.66;57.81;100914.31;5027199;28;45434;-75
2023/09/12 09:44:08;;;;;;;;;14.33;13.33;;;;;23.66;58.05;100926.00;5033414;28;45567;-74
2023/09/12 09:46:37;;;;;;;;;12.67;12.67;;;;;23.54;58.25;100907.94;5035959;28;45372;-72
2023/09/12 09:49:03;;;;;;;;;17.33;16.00;;;;;23.63;59.54;100931.91;5044085;28;45803;-73
2023/09/12 09:51:31;;;;;;;;;19.00;14.33;;;;;23.56;60.97;100931.13;5039663;28;45457;-76
2023/09/12 09:53:58;;;;;;;;;17.00;13.00;;;;;23.42;61.95;100942.28;5040770;28;45178;-76
2023/09/12 09:56:25;;;;;;;;;14.33;14.00;;;;;23.37;62.35;100938.38;5022691;28;45476;-72
2023/09/12 09:58:53;;;;;;;;;13.67;13.00;;;;;23.04;60.95;100889.03;5031158;28;45723;-72
2023/09/12 10:01:27;;;;;;;;;20.00;18.33;;;;;23.42;62.73;100955.84;5032692;28;45346;-74
2023/09/12 10:03:57;;;;;;;;;24.00;19.33;;;;;23.45;64.44;100969.00;5053895;28;46075;-73
2023/09/12 10:06:23;;;;;;;;;19.67;17.00;;;;;23.38;63.75;100956.31;5029019;28;45511;-72
2023/09/12 10:08:51;;;;;;;;;23.67;21.67;;;;;23.43;64.30;100971.13;5040533;28;46260;-74
2023/09/12 10:11:18;;;;;;;;;22.00;22.00;;;;;23.44;64.65;100980.91;5026838;28;45347;-73
2023/09/12 10:13:57;;;;;;;;;19.33;17.33;;;;;23.45;65.03;100974.44;5057194;28;45376;-72
2023/09/12 10:16:31;;;;;;;;;26.33;24.00;;;;;23.42;64.99;100988.41;5048170;28;45458;-74
2023/09/12 10:19:16;;;;;;;;;22.33;19.67;;;;;23.46;65.70;100986.94;5023048;28;46757;-74
2023/09/12 10:22:04;;;;;;;;;22.67;20.33;;;;;23.44;65.04;100991.78;5019792;28;45436;-72
2023/09/12 10:24:30;;;;;;;;;21.00;19.67;;;;;23.40;65.90;100988.66;5036210;28;45301;-75
2023/09/12 10:26:57;;;;;;;;;22.00;20.33;;;;;23.34;65.72;100974.09;5025818;28;45601;-74
2023/09/12 10:29:22;;;;;;;;;22.33;20.33;;;;;23.46;65.22;100995.09;5057283;28;47469;-73
2023/09/12 10:31:48;;;;;;;;;21.67;20.00;;;;;23.43;65.48;100995.53;5038514;28;45509;-74
2023/09/12 10:34:15;;;;;;;;;19.00;18.00;;;;;23.43;65.89;100984.69;5028062;28;45293;-73
2023/09/12 10:36:41;;;;;;;;;21.00;21.00;;;;;23.44;65.99;100989.06;5018504;28;45686;-73
2023/09/12 10:39:08;;;;;;;;;22.67;22.33;;;;;23.43;66.28;100984.69;5015627;28;47567;-73
2023/09/12 10:41:37;;;;;;;;;25.67;21.00;;;;;23.37;65.34;100976.34;5020615;28;45547;-76
2023/09/12 10:44:09;;;;;;;;;19.67;18.67;;;;;23.28;66.09;100956.00;5022424;28;45385;-72
2023/09/12 10:46:38;;;;;;;;;18.67;16.67;;;;;23.36;66.62;100953.00;5021634;28;45355;-73
2023/09/12 10:49:10;;;;;;;;;16.67;14.67;;;;;23.37;65.97;100961.97;5043929;28;45991;-73
2023/09/12 10:51:41;;;;;;;;;27.33;20.33;;;;;23.40;66.27;100963.41;5025155;28;45625;-72
2023/09/12 10:54:10;;;;;;;;;15.67;14.67;;;;;23.25;66.05;100944.78;5004854;28;45571;-73
2023/09/12 10:56:36;;;;;;;;;17.67;16.67;;;;;22.98;66.21;100900.75;5026369;28;45486;-72
2023/09/12 10:59:06;;;;;;;;;17.33;15.67;;;;;23.30;67.24;100945.75;5025646;28;46885;-73
2023/09/12 11:01:33;;;;;;;;;20.33;20.33;;;;;23.29;66.82;100941.38;5022406;28;45465;-74
2023/09/12 11:03:58;;;;;;;;;19.00;17.67;;;;;23.26;66.84;100938.28;5055948;28;45194;-75
2023/09/12 11:06:30;;;;;;;;;16.33;15.67;;;;;23.24;66.83;100949.38;5057137;28;45442;-74
2023/09/12 11:09:14;;;;;;;;;19.00;19.00;;;;;23.31;67.26;100943.88;5056761;28;46952;-73
2023/09/12 11:11:45;;;;;;;;;15.67;14.33;;;;;23.21;65.92;100929.97;5056729;28;45272;-74